sensor_id;sensor_type;location;lat;lon;timestamp;temperature;humidity
17202;DHT22;8717;53.588;10.176;2023-06-10T00:00:20;13.40;99.90
17202;DHT22;8717;53.588;10.176;2023-06-10T00:02:49;13.30;99.90
17202;DHT22;8717;53.588;10.176;2023-06-10T00:05:16;13.30;99.90
17202;DHT22;8717;53.588;10.176;2023-06-10T00:07:46;13.30;99.90
17202;DHT22;8717;53.588;10.176;2023-06-10T00:10:15;13.20;99.90
17202;DHT22;8717;53.588;10.176;2023-06-10T00:12:41;13.20;99.90
17202;DHT22;8717;53.588;10.176;2023-06-10T00:15:09;13.10;99.90
17202;DHT22;8717;53.588;10.176;2023-06-10T00:17:38;13.10;99.90
17202;DHT22;8717;53.588;10.176;2023-06-10T00:20:07;13.10;99.90
17202;DHT22;8717;53.588;10.176;2023-06-10T00:22:37;13.00;99.90
17202;DHT22;8717;53.588;10.176;2023-06-10T00:25:05;13.00;99.90
17202;DHT22;8717;53.588;10.176;2023-06-10T00:27:32;12.90;99.90
17202;DHT22;8717;53.588;10.176;2023-06-10T00:30:01;12.90;99.90
17202;DHT22;8717;53.588;10.176;2023-06-10T00:32:30;12.90;99.90
17202;DHT22;8717;53.588;10.176;2023-06-10T00:34:59;12.80;99.90
17202;DHT22;8717;53.588;10.176;2023-06-10T00:37:25;12.70;99.90
17202;DHT22;8717;53.588;10.176;2023-06-10T00:39:52;12.80;99.90
17202;DHT22;8717;53.588;10.176;2023-06-10T00:42:19;12.70;99.90
17202;DHT22;8717;53.588;10.176;2023-06-10T00:44:48;12.60;99.90
17202;DHT22;8717;53.588;10.176;2023-06-10T00:47:14;12.60;99.90
17202;DHT22;8717;53.588;10.176;2023-06-10T00:49:41;12.60;99.90
17202;DHT22;8717;53.588;10.176;2023-06-10T00:52:09;12.60;99.90
17202;DHT22;8717;53.588;10.176;2023-06-10T00:54:37;12.50;99.90
17202;DHT22;8717;53.588;10.176;2023-06-10T00:57:04;12.40;99.90
17202;DHT22;8717;53.588;10.176;2023-06-10T00:59:34;12.40;99.90
17202;DHT22;8717;53.588;10.176;2023-06-10T01:02:03;12.40;99.90
17202;DHT22;8717;53.588;10.176;2023-06-10T01:04:30;12.40;99.90
17202;DHT22;8717;53.588;10.176;2023-06-10T01:07:00;12.30;99.90
17202;DHT22;8717;53.588;10.176;2023-06-10T01:09:40;12.30;99.90
17202;DHT22;8717;53.588;10.176;2023-06-10T01:12:13;12.30;99.90
17202;DHT22;8717;53.588;10.176;2023-06-10T01:14:43;12.30;99.90
17202;DHT22;8717;53.588;10.176;2023-06-10T01:17:11;12.20;99.90
17202;DHT22;8717;53.588;10.176;2023-06-10T01:19:37;12.20;99.90
17202;DHT22;8717;53.588;10.176;2023-06-10T01:22:07;12.20;99.90
17202;DHT22;8717;53.588;10.176;2023-06-10T01:24:34;12.10;99.90
17202;DHT22;8717;53.588;10.176;2023-06-10T01:27:06;12.10;99.90
17202;DHT22;8717;53.588;10.176;2023-06-10T01:29:37;12.10;99.90
17202;DHT22;8717;53.588;10.176;2023-06-10T01:32:14;12.10;99.90
17202;DHT22;8717;53.588;10.176;2023-06-10T01:34:42;12.10;99.90
17202;DHT22;8717;53.588;10.176;2023-06-10T01:37:12;12.00;99.90
17202;DHT22;8717;53.588;10.176;2023-06-10T01:39:39;12.00;99.90
17202;DHT22;8717;53.588;10.176;2023-06-10T01:42:08;12.00;99.90
17202;DHT22;8717;53.588;10.176;2023-06-10T01:44:39;12.00;99.90
17202;DHT22;8717;53.588;10.176;2023-06-10T01:47:07;11.90;99.90
17202;DHT22;8717;53.588;10.176;2023-06-10T01:49:34;11.90;99.90
17202;DHT22;8717;53.588;10.176;2023-06-10T01:52:01;11.90;99.90
17202;DHT22;8717;53.588;10.176;2023-06-10T01:54:29;11.90;99.90
17202;DHT22;8717;53.588;10.176;2023-06-10T01:56:56;11.80;99.90
17202;DHT22;8717;53.588;10.176;2023-06-10T01:59:23;11.80;99.90
17202;DHT22;8717;53.588;10.176;2023-06-10T02:01:49;11.80;99.90
17202;DHT22;8717;53.588;10.176;2023-06-10T02:04:16;11.80;99.90
17202;DHT22;8717;53.588;10.176;2023-06-10T02:06:44;11.70;99.90
17202;DHT22;8717;53.588;10.176;2023-06-10T02:09:10;11.70;99.90
17202;DHT22;8717;53.588;10.176;2023-06-10T02:11:38;11.70;99.90
17202;DHT22;8717;53.588;10.176;2023-06-10T02:14:05;11.70;99.90
17202;DHT22;8717;53.588;10.176;2023-06-10T02:16:32;11.70;99.90
17202;DHT22;8717;53.588;10.176;2023-06-10T02:18:59;11.70;99.90
17202;DHT22;8717;53.588;10.176;2023-06-10T02:21:27;11.60;99.90
17202;DHT22;8717;53.588;10.176;2023-06-10T02:23:54;11.60;99.90
17202;DHT22;8717;53.588;10.176;2023-06-10T02:26:20;11.60;99.90
17202;DHT22;8717;53.588;10.176;2023-06-10T02:28:50;11.60;99.90
17202;DHT22;8717;53.588;10.176;2023-06-10T02:31:17;11.60;99.90
17202;DHT22;8717;53.588;10.176;2023-06-10T02:33:45;11.60;99.90
17202;DHT22;8717;53.588;10.176;2023-06-10T02:36:12;11.50;99.90
17202;DHT22;8717;53.588;10.176;2023-06-10T02:38:41;11.50;99.90
17202;DHT22;8717;53.588;10.176;2023-06-10T02:41:08;11.50;99.90
17202;DHT22;8717;53.588;10.176;2023-06-10T02:43:34;11.50;99.90
17202;DHT22;8717;53.588;10.176;2023-06-10T02:46:03;11.50;99.90
17202;DHT22;8717;53.588;10.176;2023-06-10T02:48:31;11.60;99.90
17202;DHT22;8717;53.588;10.176;2023-06-10T02:50:57;11.50;99.90
17202;DHT22;8717;53.588;10.176;2023-06-10T02:53:34;11.50;99.90
17202;DHT22;8717;53.588;10.176;2023-06-10T02:56:06;11.50;99.90
17202;DHT22;8717;53.588;10.176;2023-06-10T02:58:33;11.40;99.90
17202;DHT22;8717;53.588;10.176;2023-06-10T03:01:02;11.50;99.90
17202;DHT22;8717;53.588;10.176;2023-06-10T03:03:37;11.40;99.90
17202;DHT22;8717;53.588;10.176;2023-06-10T03:06:10;11.50;99.90
17202;DHT22;8717;53.588;10.176;2023-06-10T03:08:39;11.40;99.90
17202;DHT22;8717;53.588;10.176;2023-06-10T03:11:10;11.40;99.90
17202;DHT22;8717;53.588;10.176;2023-06-10T03:13:38;11.40;99.90
17202;DHT22;8717;53.588;10.176;2023-06-10T03:16:10;11.40;99.90
17202;DHT22;8717;53.588;10.176;2023-06-10T03:18:38;11.40;99.90
17202;DHT22;8717;53.588;10.176;2023-06-10T03:21:05;11.40;99.90
17202;DHT22;8717;53.588;10.176;2023-06-10T03:23:34;11.40;99.90
17202;DHT22;8717;53.588;10.176;2023-06-10T03:26:02;11.40;99.90
17202;DHT22;8717;53.588;10.176;2023-06-10T03:28:31;11.50;99.90
17202;DHT22;8717;53.588;10.176;2023-06-10T03:30:58;11.50;99.90
17202;DHT22;8717;53.588;10.176;2023-06-10T03:33:28;11.40;99.90
17202;DHT22;8717;53.588;10.176;2023-06-10T03:35:55;11.40;99.90
17202;DHT22;8717;53.588;10.176;2023-06-10T03:38:23;11.40;99.90
17202;DHT22;8717;53.588;10.176;2023-06-10T03:40:53;11.50;99.90
17202;DHT22;8717;53.588;10.176;2023-06-10T03:43:20;11.50;99.90
17202;DHT22;8717;53.588;10.176;2023-06-10T03:45:48;11.60;99.90
17202;DHT22;8717;53.588;10.176;2023-06-10T03:48:15;11.50;99.90
17202;DHT22;8717;53.588;10.176;2023-06-10T03:50:51;11.50;99.90
17202;DHT22;8717;53.588;10.176;2023-06-10T03:53:20;11.60;99.90
17202;DHT22;8717;53.588;10.176;2023-06-10T03:55:47;11.60;99.90
17202;DHT22;8717;53.588;10.176;2023-06-10T03:58:16;11.60;99.90
17202;DHT22;8717;53.588;10.176;2023-06-10T04:00:44;11.60;99.90
17202;DHT22;8717;53.588;10.176;2023-06-10T04:03:11;11.60;99.90
17202;DHT22;8717;53.588;10.176;2023-06-10T04:05:43;11.70;99.90
17202;DHT22;8717;53.588;10.176;2023-06-10T04:08:11;11.70;99.90
17202;DHT22;8717;53.588;10.176;2023-06-10T04:10:38;11.70;99.90
17202;DHT22;8717;53.588;10.176;2023-06-10T04:13:05;11.80;99.90
17202;DHT22;8717;53.588;10.176;2023-06-10T04:15:39;11.80;99.90
17202;DHT22;8717;53.588;10.176;2023-06-10T04:18:10;11.80;99.90
17202;DHT22;8717;53.588;10.176;2023-06-10T04:20:37;11.90;99.90
17202;DHT22;8717;53.588;10.176;2023-06-10T04:23:04;11.90;99.90
17202;DHT22;8717;53.588;10.176;2023-06-10T04:25:33;12.00;99.90
17202;DHT22;8717;53.588;10.176;2023-06-10T04:28:00;12.00;99.90
17202;DHT22;8717;53.588;10.176;2023-06-10T04:30:27;12.00;99.90
17202;DHT22;8717;53.588;10.176;2023-06-10T04:32:55;12.10;99.90
17202;DHT22;8717;53.588;10.176;2023-06-10T04:35:22;12.10;99.90
17202;DHT22;8717;53.588;10.176;2023-06-10T04:37:50;12.10;99.90
17202;DHT22;8717;53.588;10.176;2023-06-10T04:40:17;12.20;99.90
17202;DHT22;8717;53.588;10.176;2023-06-10T04:42:48;12.20;99.90
17202;DHT22;8717;53.588;10.176;2023-06-10T04:45:15;12.20;99.90
17202;DHT22;8717;53.588;10.176;2023-06-10T04:47:43;12.30;99.90
17202;DHT22;8717;53.588;10.176;2023-06-10T04:50:10;12.30;99.90
17202;DHT22;8717;53.588;10.176;2023-06-10T04:52:38;12.30;99.90
17202;DHT22;8717;53.588;10.176;2023-06-10T04:55:08;12.40;99.90
17202;DHT22;8717;53.588;10.176;2023-06-10T04:57:35;12.40;99.90
17202;DHT22;8717;53.588;10.176;2023-06-10T05:00:05;12.50;99.90
17202;DHT22;8717;53.588;10.176;2023-06-10T05:02:32;12.60;99.90
17202;DHT22;8717;53.588;10.176;2023-06-10T05:04:59;12.60;99.90
17202;DHT22;8717;53.588;10.176;2023-06-10T05:07:26;12.70;99.90
17202;DHT22;8717;53.588;10.176;2023-06-10T05:09:53;12.70;99.90
17202;DHT22;8717;53.588;10.176;2023-06-10T05:12:20;12.80;99.90
17202;DHT22;8717;53.588;10.176;2023-06-10T05:14:47;12.90;99.90
17202;DHT22;8717;53.588;10.176;2023-06-10T05:17:15;12.90;99.90
17202;DHT22;8717;53.588;10.176;2023-06-10T05:19:42;13.00;99.90
17202;DHT22;8717;53.588;10.176;2023-06-10T05:22:10;13.00;99.90
17202;DHT22;8717;53.588;10.176;2023-06-10T05:24:37;13.10;99.90
17202;DHT22;8717;53.588;10.176;2023-06-10T05:27:04;13.10;99.90
17202;DHT22;8717;53.588;10.176;2023-06-10T05:29:32;13.20;99.90
17202;DHT22;8717;53.588;10.176;2023-06-10T05:31:59;13.30;99.90
17202;DHT22;8717;53.588;10.176;2023-06-10T05:34:30;13.30;99.90
17202;DHT22;8717;53.588;10.176;2023-06-10T05:36:57;13.30;99.90
17202;DHT22;8717;53.588;10.176;2023-06-10T05:39:24;13.40;99.90
17202;DHT22;8717;53.588;10.176;2023-06-10T05:41:51;13.50;99.90
17202;DHT22;8717;53.588;10.176;2023-06-10T05:44:17;13.50;99.90
17202;DHT22;8717;53.588;10.176;2023-06-10T05:46:44;13.60;99.90
17202;DHT22;8717;53.588;10.176;2023-06-10T05:49:11;13.60;99.90
17202;DHT22;8717;53.588;10.176;2023-06-10T05:51:39;13.70;99.90
17202;DHT22;8717;53.588;10.176;2023-06-10T05:54:06;13.70;99.90
17202;DHT22;8717;53.588;10.176;2023-06-10T05:56:32;13.80;99.90
17202;DHT22;8717;53.588;10.176;2023-06-10T05:58:59;13.80;99.90
17202;DHT22;8717;53.588;10.176;2023-06-10T06:01:26;13.90;99.90
17202;DHT22;8717;53.588;10.176;2023-06-10T06:03:53;13.90;99.90
17202;DHT22;8717;53.588;10.176;2023-06-10T06:06:20;14.00;99.90
17202;DHT22;8717;53.588;10.176;2023-06-10T06:08:48;14.00;99.90
17202;DHT22;8717;53.588;10.176;2023-06-10T06:11:14;14.10;99.90
17202;DHT22;8717;53.588;10.176;2023-06-10T06:13:41;14.10;99.90
17202;DHT22;8717;53.588;10.176;2023-06-10T06:16:08;14.20;99.90
17202;DHT22;8717;53.588;10.176;2023-06-10T06:18:35;14.20;99.90
17202;DHT22;8717;53.588;10.176;2023-06-10T06:21:01;14.30;99.90
17202;DHT22;8717;53.588;10.176;2023-06-10T06:23:28;14.40;99.90
17202;DHT22;8717;53.588;10.176;2023-06-10T06:25:57;14.40;99.90
17202;DHT22;8717;53.588;10.176;2023-06-10T06:28:23;14.50;99.90
17202;DHT22;8717;53.588;10.176;2023-06-10T06:30:54;14.60;99.90
17202;DHT22;8717;53.588;10.176;2023-06-10T06:33:21;14.80;99.90
17202;DHT22;8717;53.588;10.176;2023-06-10T06:35:47;15.00;99.90
17202;DHT22;8717;53.588;10.176;2023-06-10T06:38:14;15.20;99.90
17202;DHT22;8717;53.588;10.176;2023-06-10T06:40:41;15.40;99.90
17202;DHT22;8717;53.588;10.176;2023-06-10T06:43:09;15.50;99.90
17202;DHT22;8717;53.588;10.176;2023-06-10T06:45:51;15.60;99.90
17202;DHT22;8717;53.588;10.176;2023-06-10T06:48:17;15.70;99.90
17202;DHT22;8717;53.588;10.176;2023-06-10T06:50:44;15.80;99.90
17202;DHT22;8717;53.588;10.176;2023-06-10T06:53:12;15.90;99.90
17202;DHT22;8717;53.588;10.176;2023-06-10T06:55:38;15.90;99.90
17202;DHT22;8717;53.588;10.176;2023-06-10T06:58:06;16.00;99.90
17202;DHT22;8717;53.588;10.176;2023-06-10T07:00:34;16.10;99.90
17202;DHT22;8717;53.588;10.176;2023-06-10T07:03:00;16.40;99.90
17202;DHT22;8717;53.588;10.176;2023-06-10T07:05:27;16.70;99.90
17202;DHT22;8717;53.588;10.176;2023-06-10T07:07:54;17.20;99.90
17202;DHT22;8717;53.588;10.176;2023-06-10T07:10:21;18.00;99.90
17202;DHT22;8717;53.588;10.176;2023-06-10T07:12:48;18.80;99.90
17202;DHT22;8717;53.588;10.176;2023-06-10T07:15:15;19.80;99.90
17202;DHT22;8717;53.588;10.176;2023-06-10T07:17:43;20.70;99.90
17202;DHT22;8717;53.588;10.176;2023-06-10T07:20:11;21.50;99.90
17202;DHT22;8717;53.588;10.176;2023-06-10T07:22:38;22.20;99.90
17202;DHT22;8717;53.588;10.176;2023-06-10T07:25:06;22.70;99.90
17202;DHT22;8717;53.588;10.176;2023-06-10T07:27:33;23.30;98.80
17202;DHT22;8717;53.588;10.176;2023-06-10T07:30:01;23.90;98.30
17202;DHT22;8717;53.588;10.176;2023-06-10T07:32:28;24.40;97.90
17202;DHT22;8717;53.588;10.176;2023-06-10T07:34:56;24.90;97.00
17202;DHT22;8717;53.588;10.176;2023-06-10T07:37:23;25.40;94.50
17202;DHT22;8717;53.588;10.176;2023-06-10T07:39:50;25.80;94.40
17202;DHT22;8717;53.588;10.176;2023-06-10T07:42:16;26.30;93.50
17202;DHT22;8717;53.588;10.176;2023-06-10T07:44:43;26.60;92.90
17202;DHT22;8717;53.588;10.176;2023-06-10T07:47:10;27.00;92.20
17202;DHT22;8717;53.588;10.176;2023-06-10T07:49:36;27.30;91.50
17202;DHT22;8717;53.588;10.176;2023-06-10T07:52:05;27.60;90.20
17202;DHT22;8717;53.588;10.176;2023-06-10T07:54:32;27.80;87.70
17202;DHT22;8717;53.588;10.176;2023-06-10T07:56:59;28.10;87.40
17202;DHT22;8717;53.588;10.176;2023-06-10T07:59:25;28.30;86.30
17202;DHT22;8717;53.588;10.176;2023-06-10T08:01:53;28.50;84.00
17202;DHT22;8717;53.588;10.176;2023-06-10T08:04:19;28.60;83.50
17202;DHT22;8717;53.588;10.176;2023-06-10T08:06:46;28.80;82.00
17202;DHT22;8717;53.588;10.176;2023-06-10T08:09:14;29.00;81.80
17202;DHT22;8717;53.588;10.176;2023-06-10T08:11:41;29.20;80.00
17202;DHT22;8717;53.588;10.176;2023-06-10T08:14:07;29.40;80.20
17202;DHT22;8717;53.588;10.176;2023-06-10T08:16:34;29.60;78.70
17202;DHT22;8717;53.588;10.176;2023-06-10T08:19:01;29.90;77.20
17202;DHT22;8717;53.588;10.176;2023-06-10T08:21:27;30.00;76.00
17202;DHT22;8717;53.588;10.176;2023-06-10T08:23:56;30.20;74.60
17202;DHT22;8717;53.588;10.176;2023-06-10T08:26:24;30.20;73.00
17202;DHT22;8717;53.588;10.176;2023-06-10T08:28:51;30.20;72.20
17202;DHT22;8717;53.588;10.176;2023-06-10T08:31:18;30.20;72.50
17202;DHT22;8717;53.588;10.176;2023-06-10T08:33:44;30.20;72.50
17202;DHT22;8717;53.588;10.176;2023-06-10T08:36:11;30.40;72.80
17202;DHT22;8717;53.588;10.176;2023-06-10T08:38:38;30.70;72.10
17202;DHT22;8717;53.588;10.176;2023-06-10T08:41:06;30.90;71.30
17202;DHT22;8717;53.588;10.176;2023-06-10T08:43:40;31.20;70.20
17202;DHT22;8717;53.588;10.176;2023-06-10T08:46:09;31.50;69.40
17202;DHT22;8717;53.588;10.176;2023-06-10T08:48:41;31.70;69.10
17202;DHT22;8717;53.588;10.176;2023-06-10T08:51:09;32.20;67.20
17202;DHT22;8717;53.588;10.176;2023-06-10T08:53:38;32.50;65.80
17202;DHT22;8717;53.588;10.176;2023-06-10T08:56:05;32.80;64.20
17202;DHT22;8717;53.588;10.176;2023-06-10T08:58:32;32.80;63.90
17202;DHT22;8717;53.588;10.176;2023-06-10T09:01:07;32.80;63.10
17202;DHT22;8717;53.588;10.176;2023-06-10T09:03:34;32.70;62.10
17202;DHT22;8717;53.588;10.176;2023-06-10T09:06:04;32.70;61.50
17202;DHT22;8717;53.588;10.176;2023-06-10T09:08:31;32.50;61.50
17202;DHT22;8717;53.588;10.176;2023-06-10T09:10:58;32.50;61.80
17202;DHT22;8717;53.588;10.176;2023-06-10T09:13:25;32.60;61.90
17202;DHT22;8717;53.588;10.176;2023-06-10T09:15:54;32.70;61.10
17202;DHT22;8717;53.588;10.176;2023-06-10T09:18:23;32.70;60.90
17202;DHT22;8717;53.588;10.176;2023-06-10T09:20:56;32.70;60.10
17202;DHT22;8717;53.588;10.176;2023-06-10T09:23:27;32.70;59.40
17202;DHT22;8717;53.588;10.176;2023-06-10T09:25:57;32.80;60.30
17202;DHT22;8717;53.588;10.176;2023-06-10T09:28:25;32.90;59.90
17202;DHT22;8717;53.588;10.176;2023-06-10T09:31:02;33.10;60.50
17202;DHT22;8717;53.588;10.176;2023-06-10T09:33:31;33.20;59.00
17202;DHT22;8717;53.588;10.176;2023-06-10T09:36:01;33.40;58.80
17202;DHT22;8717;53.588;10.176;2023-06-10T09:38:32;33.50;58.40
17202;DHT22;8717;53.588;10.176;2023-06-10T09:41:00;33.60;57.70
17202;DHT22;8717;53.588;10.176;2023-06-10T09:43:40;33.70;57.80
17202;DHT22;8717;53.588;10.176;2023-06-10T09:46:07;33.70;58.00
17202;DHT22;8717;53.588;10.176;2023-06-10T09:48:43;33.80;58.40
17202;DHT22;8717;53.588;10.176;2023-06-10T09:51:10;33.90;57.20
17202;DHT22;8717;53.588;10.176;2023-06-10T09:53:37;33.90;56.50
17202;DHT22;8717;53.588;10.176;2023-06-10T09:56:04;33.90;57.00
17202;DHT22;8717;53.588;10.176;2023-06-10T09:58:35;33.90;57.00
17202;DHT22;8717;53.588;10.176;2023-06-10T10:01:15;33.80;56.40
17202;DHT22;8717;53.588;10.176;2023-06-10T10:04:06;33.90;57.20
17202;DHT22;8717;53.588;10.176;2023-06-10T10:06:37;34.00;56.90
17202;DHT22;8717;53.588;10.176;2023-06-10T10:09:04;34.00;56.50
17202;DHT22;8717;53.588;10.176;2023-06-10T10:11:33;34.00;56.10
17202;DHT22;8717;53.588;10.176;2023-06-10T10:14:05;34.00;55.70
17202;DHT22;8717;53.588;10.176;2023-06-10T10:16:36;34.10;55.70
17202;DHT22;8717;53.588;10.176;2023-06-10T10:19:10;34.00;55.60
17202;DHT22;8717;53.588;10.176;2023-06-10T10:21:43;34.10;55.40
17202;DHT22;8717;53.588;10.176;2023-06-10T10:24:16;34.10;55.80
17202;DHT22;8717;53.588;10.176;2023-06-10T10:26:46;34.10;55.10
17202;DHT22;8717;53.588;10.176;2023-06-10T10:29:19;34.20;55.50
17202;DHT22;8717;53.588;10.176;2023-06-10T10:31:49;34.30;55.10
17202;DHT22;8717;53.588;10.176;2023-06-10T10:34:24;34.40;55.70
17202;DHT22;8717;53.588;10.176;2023-06-10T10:36:53;34.60;54.80
17202;DHT22;8717;53.588;10.176;2023-06-10T10:39:20;34.70;55.10
17202;DHT22;8717;53.588;10.176;2023-06-10T10:41:48;34.80;54.50
17202;DHT22;8717;53.588;10.176;2023-06-10T10:44:15;34.90;54.00
17202;DHT22;8717;53.588;10.176;2023-06-10T10:46:42;34.80;54.00
17202;DHT22;8717;53.588;10.176;2023-06-10T10:49:12;34.80;54.00
17202;DHT22;8717;53.588;10.176;2023-06-10T10:51:54;34.70;54.20
17202;DHT22;8717;53.588;10.176;2023-06-10T10:54:28;34.80;54.60
17202;DHT22;8717;53.588;10.176;2023-06-10T10:57:15;35.00;53.80
17202;DHT22;8717;53.588;10.176;2023-06-10T10:59:53;35.10;53.70
17202;DHT22;8717;53.588;10.176;2023-06-10T11:02:40;35.00;53.00
17202;DHT22;8717;53.588;10.176;2023-06-10T11:05:10;34.90;53.10
17202;DHT22;8717;53.588;10.176;2023-06-10T11:07:38;34.70;52.80
17202;DHT22;8717;53.588;10.176;2023-06-10T11:10:09;34.50;53.20
17202;DHT22;8717;53.588;10.176;2023-06-10T11:12:50;34.40;53.80
17202;DHT22;8717;53.588;10.176;2023-06-10T11:15:19;34.30;54.10
17202;DHT22;8717;53.588;10.176;2023-06-10T11:18:11;34.40;54.10
17202;DHT22;8717;53.588;10.176;2023-06-10T11:20:45;34.30;54.50
17202;DHT22;8717;53.588;10.176;2023-06-10T11:23:32;34.40;54.10
17202;DHT22;8717;53.588;10.176;2023-06-10T11:26:10;34.40;54.20
17202;DHT22;8717;53.588;10.176;2023-06-10T11:28:37;34.50;53.90
17202;DHT22;8717;53.588;10.176;2023-06-10T11:31:04;34.60;54.30
17202;DHT22;8717;53.588;10.176;2023-06-10T11:33:31;34.70;54.00
17202;DHT22;8717;53.588;10.176;2023-06-10T11:35:57;34.80;53.50
17202;DHT22;8717;53.588;10.176;2023-06-10T11:38:26;34.70;53.30
17202;DHT22;8717;53.588;10.176;2023-06-10T11:40:54;34.70;53.70
17202;DHT22;8717;53.588;10.176;2023-06-10T11:43:22;34.60;53.60
17202;DHT22;8717;53.588;10.176;2023-06-10T11:45:54;34.70;53.80
17202;DHT22;8717;53.588;10.176;2023-06-10T11:48:21;34.70;53.00
17202;DHT22;8717;53.588;10.176;2023-06-10T11:50:48;34.90;53.60
17202;DHT22;8717;53.588;10.176;2023-06-10T11:53:14;35.00;53.30
17202;DHT22;8717;53.588;10.176;2023-06-10T11:55:44;35.10;52.40
17202;DHT22;8717;53.588;10.176;2023-06-10T11:58:14;34.90;52.10
17202;DHT22;8717;53.588;10.176;2023-06-10T12:00:45;34.60;52.40
17202;DHT22;8717;53.588;10.176;2023-06-10T12:03:12;34.40;52.90
17202;DHT22;8717;53.588;10.176;2023-06-10T12:05:39;34.30;53.10
17202;DHT22;8717;53.588;10.176;2023-06-10T12:08:09;34.20;53.50
17202;DHT22;8717;53.588;10.176;2023-06-10T12:10:40;34.20;53.20
17202;DHT22;8717;53.588;10.176;2023-06-10T12:13:09;34.30;52.50
17202;DHT22;8717;53.588;10.176;2023-06-10T12:15:36;34.30;52.70
17202;DHT22;8717;53.588;10.176;2023-06-10T12:18:03;34.20;53.00
17202;DHT22;8717;53.588;10.176;2023-06-10T12:20:31;34.20;54.30
17202;DHT22;8717;53.588;10.176;2023-06-10T12:22:59;34.20;53.10
17202;DHT22;8717;53.588;10.176;2023-06-10T12:25:27;34.30;53.30
17202;DHT22;8717;53.588;10.176;2023-06-10T12:27:55;34.20;52.90
17202;DHT22;8717;53.588;10.176;2023-06-10T12:30:25;34.20;52.90
17202;DHT22;8717;53.588;10.176;2023-06-10T12:32:53;34.10;53.30
17202;DHT22;8717;53.588;10.176;2023-06-10T12:35:21;34.10;53.70
17202;DHT22;8717;53.588;10.176;2023-06-10T12:37:57;34.10;53.60
17202;DHT22;8717;53.588;10.176;2023-06-10T12:40:27;34.20;53.10
17202;DHT22;8717;53.588;10.176;2023-06-10T12:42:55;34.30;52.90
17202;DHT22;8717;53.588;10.176;2023-06-10T12:45:30;34.20;53.00
17202;DHT22;8717;53.588;10.176;2023-06-10T12:48:07;34.20;53.60
17202;DHT22;8717;53.588;10.176;2023-06-10T12:50:35;34.10;53.40
17202;DHT22;8717;53.588;10.176;2023-06-10T12:53:03;34.10;53.50
17202;DHT22;8717;53.588;10.176;2023-06-10T12:55:30;34.10;53.30
17202;DHT22;8717;53.588;10.176;2023-06-10T12:57:56;34.20;53.40
17202;DHT22;8717;53.588;10.176;2023-06-10T13:00:23;34.40;53.20
17202;DHT22;8717;53.588;10.176;2023-06-10T13:02:52;34.50;52.60
17202;DHT22;8717;53.588;10.176;2023-06-10T13:05:19;34.60;52.40
17202;DHT22;8717;53.588;10.176;2023-06-10T13:07:46;34.50;52.30
17202;DHT22;8717;53.588;10.176;2023-06-10T13:10:13;34.40;52.60
17202;DHT22;8717;53.588;10.176;2023-06-10T13:12:40;34.20;52.40
17202;DHT22;8717;53.588;10.176;2023-06-10T13:15:07;34.00;52.90
17202;DHT22;8717;53.588;10.176;2023-06-10T13:17:34;33.70;53.40
17202;DHT22;8717;53.588;10.176;2023-06-10T13:20:03;33.40;54.10
17202;DHT22;8717;53.588;10.176;2023-06-10T13:22:31;33.30;54.20
17202;DHT22;8717;53.588;10.176;2023-06-10T13:24:58;33.10;54.20
17202;DHT22;8717;53.588;10.176;2023-06-10T13:27:25;33.00;54.70
17202;DHT22;8717;53.588;10.176;2023-06-10T13:29:52;32.70;55.30
17202;DHT22;8717;53.588;10.176;2023-06-10T13:32:19;32.50;55.30
17202;DHT22;8717;53.588;10.176;2023-06-10T13:34:46;32.30;55.70
17202;DHT22;8717;53.588;10.176;2023-06-10T13:37:14;32.20;56.10
17202;DHT22;8717;53.588;10.176;2023-06-10T13:39:41;32.00;56.20
17202;DHT22;8717;53.588;10.176;2023-06-10T13:42:08;31.90;56.50
17202;DHT22;8717;53.588;10.176;2023-06-10T13:44:34;31.90;56.90
17202;DHT22;8717;53.588;10.176;2023-06-10T13:47:02;31.90;57.30
17202;DHT22;8717;53.588;10.176;2023-06-10T13:49:28;32.00;57.30
17202;DHT22;8717;53.588;10.176;2023-06-10T13:51:56;32.00;57.00
17202;DHT22;8717;53.588;10.176;2023-06-10T13:54:24;31.90;56.90
17202;DHT22;8717;53.588;10.176;2023-06-10T13:56:50;31.80;57.10
17202;DHT22;8717;53.588;10.176;2023-06-10T13:59:18;31.80;57.10
17202;DHT22;8717;53.588;10.176;2023-06-10T14:01:45;31.50;57.10
17202;DHT22;8717;53.588;10.176;2023-06-10T14:04:12;31.40;57.40
17202;DHT22;8717;53.588;10.176;2023-06-10T14:06:39;31.20;58.00
17202;DHT22;8717;53.588;10.176;2023-06-10T14:09:05;31.00;58.20
17202;DHT22;8717;53.588;10.176;2023-06-10T14:11:33;30.80;58.20
17202;DHT22;8717;53.588;10.176;2023-06-10T14:14:00;30.60;58.30
17202;DHT22;8717;53.588;10.176;2023-06-10T14:16:27;30.30;58.70
17202;DHT22;8717;53.588;10.176;2023-06-10T14:18:54;30.10;59.20
17202;DHT22;8717;53.588;10.176;2023-06-10T14:21:20;29.80;59.60
17202;DHT22;8717;53.588;10.176;2023-06-10T14:23:47;29.50;59.80
17202;DHT22;8717;53.588;10.176;2023-06-10T14:26:15;29.30;60.70
17202;DHT22;8717;53.588;10.176;2023-06-10T14:28:43;29.20;61.60
17202;DHT22;8717;53.588;10.176;2023-06-10T14:31:10;29.10;61.50
17202;DHT22;8717;53.588;10.176;2023-06-10T14:33:36;29.00;61.90
17202;DHT22;8717;53.588;10.176;2023-06-10T14:36:05;28.90;61.70
17202;DHT22;8717;53.588;10.176;2023-06-10T14:38:31;29.00;62.10
17202;DHT22;8717;53.588;10.176;2023-06-10T14:40:58;29.00;62.30
17202;DHT22;8717;53.588;10.176;2023-06-10T14:43:25;29.10;62.50
17202;DHT22;8717;53.588;10.176;2023-06-10T14:45:53;29.10;62.20
17202;DHT22;8717;53.588;10.176;2023-06-10T14:48:21;29.20;62.00
17202;DHT22;8717;53.588;10.176;2023-06-10T14:50:48;29.20;62.00
17202;DHT22;8717;53.588;10.176;2023-06-10T14:53:16;29.30;61.80
17202;DHT22;8717;53.588;10.176;2023-06-10T14:55:43;29.20;62.20
17202;DHT22;8717;53.588;10.176;2023-06-10T14:58:10;29.20;62.30
17202;DHT22;8717;53.588;10.176;2023-06-10T15:00:36;29.10;62.70
17202;DHT22;8717;53.588;10.176;2023-06-10T15:03:04;29.10;63.00
17202;DHT22;8717;53.588;10.176;2023-06-10T15:05:31;29.10;62.80
17202;DHT22;8717;53.588;10.176;2023-06-10T15:07:58;29.00;62.80
17202;DHT22;8717;53.588;10.176;2023-06-10T15:10:25;28.90;62.70
17202;DHT22;8717;53.588;10.176;2023-06-10T15:12:52;28.80;62.80
17202;DHT22;8717;53.588;10.176;2023-06-10T15:15:21;28.60;63.00
17202;DHT22;8717;53.588;10.176;2023-06-10T15:17:48;28.40;63.30
17202;DHT22;8717;53.588;10.176;2023-06-10T15:20:16;28.30;64.40
17202;DHT22;8717;53.588;10.176;2023-06-10T15:22:42;28.10;64.40
17202;DHT22;8717;53.588;10.176;2023-06-10T15:25:09;28.00;64.60
17202;DHT22;8717;53.588;10.176;2023-06-10T15:27:36;28.00;64.90
17202;DHT22;8717;53.588;10.176;2023-06-10T15:30:03;27.90;65.30
17202;DHT22;8717;53.588;10.176;2023-06-10T15:32:31;27.80;66.10
17202;DHT22;8717;53.588;10.176;2023-06-10T15:34:57;27.80;65.60
17202;DHT22;8717;53.588;10.176;2023-06-10T15:37:25;27.80;65.60